Time;durP1;ratioP1;P1;durP2;ratioP2;P2;SDS_P1;SDS_P2;PMS_P1;PMS_P2;Temp;Humidity;BMP_temperature;BMP_pressure;BME280_temperature;BME280_humidity;BME280_pressure;Samples;Min_cycle;Max_cycle;Signal;HPM_P1;HPM_P2
2021/01/25 00:00:44;;;;;;;9.00;4.00;;;2.00;93.10;;;;;;5029820;28;20405;-71
2021/01/25 00:03:11;;;;;;;7.17;3.80;;;2.00;93.10;;;;;;5027755;28;20042;-72
2021/01/25 00:05:37;;;;;;;6.93;3.33;;;2.00;93.00;;;;;;4997589;28;20474;-72
2021/01/25 00:08:04;;;;;;;7.73;3.40;;;2.00;93.00;;;;;;5013308;28;20120;-72
2021/01/25 00:10:31;;;;;;;7.53;3.57;;;2.00;93.00;;;;;;5029729;28;20080;-71
2021/01/25 00:12:57;;;;;;;7.30;3.57;;;2.00;93.00;;;;;;5010967;28;20041;-72
2021/01/25 00:15:23;;;;;;;6.17;3.50;;;2.00;93.00;;;;;;5029688;28;20455;-71
2021/01/25 00:17:50;;;;;;;6.40;3.43;;;2.00;93.00;;;;;;5029285;28;20092;-71
2021/01/25 00:20:17;;;;;;;6.30;3.20;;;2.00;93.10;;;;;;5027378;28;20099;-71
2021/01/25 00:22:43;;;;;;;7.33;3.37;;;2.00;93.10;;;;;;5032254;28;20072;-71
2021/01/25 00:25:10;;;;;;;6.90;3.30;;;2.00;93.10;;;;;;5028392;28;20121;-71
2021/01/25 00:27:36;;;;;;;6.33;3.17;;;2.00;93.10;;;;;;5015056;28;20553;-71
2021/01/25 00:30:04;;;;;;;7.63;3.90;;;2.00;93.10;;;;;;5026513;28;20038;-71
2021/01/25 00:32:31;;;;;;;8.03;3.47;;;2.00;93.10;;;;;;5026401;28;20105;-71
2021/01/25 00:34:58;;;;;;;6.67;3.77;;;2.00;93.10;;;;;;5021384;28;20042;-71
2021/01/25 00:37:24;;;;;;;7.73;4.23;;;2.00;93.10;;;;;;5030897;28;20801;-72
2021/01/25 00:39:51;;;;;;;7.33;3.93;;;2.00;93.00;;;;;;5029858;28;20080;-71
2021/01/25 00:42:17;;;;;;;6.67;3.77;;;2.10;93.00;;;;;;5015434;28;20124;-72
2021/01/25 00:44:44;;;;;;;7.90;4.47;;;2.00;93.00;;;;;;5023800;28;20052;-72
2021/01/25 00:47:10;;;;;;;7.97;4.23;;;2.00;93.00;;;;;;5021007;28;20046;-71
2021/01/25 00:49:37;;;;;;;7.23;3.73;;;2.00;93.00;;;;;;5007965;28;20046;-71
2021/01/25 00:52:04;;;;;;;9.00;4.20;;;2.00;93.00;;;;;;5025587;28;20037;-71
2021/01/25 00:54:31;;;;;;;8.13;4.30;;;2.00;93.00;;;;;;5028062;28;20056;-71
2021/01/25 00:56:57;;;;;;;8.27;4.47;;;2.00;93.00;;;;;;5027020;28;20049;-72
2021/01/25 00:59:23;;;;;;;7.47;4.30;;;2.00;93.00;;;;;;5012865;28;20049;-71
2021/01/25 01:01:50;;;;;;;11.00;5.67;;;2.00;93.00;;;;;;5025030;28;20041;-71
2021/01/25 01:04:17;;;;;;;8.10;4.73;;;2.00;93.00;;;;;;5032154;28;20033;-71
2021/01/25 01:06:43;;;;;;;9.53;4.53;;;2.00;93.00;;;;;;5033526;28;20033;-71
2021/01/25 01:09:09;;;;;;;9.77;4.70;;;2.00;93.00;;;;;;5020447;28;20804;-71
2021/01/25 01:11:36;;;;;;;10.13;4.33;;;2.00;93.00;;;;;;5025220;28;20041;-71
2021/01/25 01:14:03;;;;;;;7.80;4.00;;;2.00;93.00;;;;;;5021211;28;20532;-71
2021/01/25 01:16:29;;;;;;;7.70;4.20;;;2.00;93.00;;;;;;5019457;28;20119;-71
2021/01/25 01:18:56;;;;;;;10.03;4.40;;;2.00;93.00;;;;;;5023223;28;20069;-71
2021/01/25 01:21:22;;;;;;;8.63;4.20;;;2.10;93.00;;;;;;5030463;28;20042;-71
2021/01/25 01:23:49;;;;;;;7.50;4.47;;;2.00;93.00;;;;;;5015460;28;20042;-71
2021/01/25 01:26:16;;;;;;;8.97;4.60;;;2.00;93.30;;;;;;5031120;28;20046;-71
2021/01/25 01:28:42;;;;;;;7.33;4.27;;;2.00;93.00;;;;;;5031805;28;20140;-72
2021/01/25 01:31:09;;;;;;;9.83;4.90;;;2.00;93.30;;;;;;5015513;28;20123;-71
2021/01/25 01:33:35;;;;;;;8.63;4.40;;;2.00;93.00;;;;;;5028195;28;20050;-71
2021/01/25 01:36:03;;;;;;;8.47;4.50;;;2.00;93.00;;;;;;5030239;28;20472;-71
2021/01/25 01:38:30;;;;;;;6.03;4.23;;;2.00;93.00;;;;;;5032856;28;20132;-71
2021/01/25 01:41:00;;;;;;;9.40;4.97;;;2.00;93.00;;;;;;5030522;28;20378;-72
2021/01/25 01:43:26;;;;;;;8.23;4.57;;;2.00;93.00;;;;;;5014622;28;20050;-71
2021/01/25 01:45:53;;;;;;;8.40;4.67;;;2.00;93.00;;;;;;5029298;28;20037;-72
2021/01/25 01:48:21;;;;;;;9.87;5.70;;;2.00;93.00;;;;;;5031017;28;20112;-71
2021/01/25 01:50:48;;;;;;;9.13;5.47;;;2.00;93.00;;;;;;5032750;28;20504;-71
2021/01/25 01:53:15;;;;;;;9.53;6.10;;;2.00;93.00;;;;;;5020646;28;20053;-71
2021/01/25 01:55:42;;;;;;;9.87;5.83;;;2.00;93.00;;;;;;5035136;28;20140;-72
2021/01/25 01:58:10;;;;;;;8.90;5.57;;;2.00;93.00;;;;;;5030784;28;20041;-71
2021/01/25 02:00:37;;;;;;;10.17;5.47;;;2.00;93.00;;;;;;5028992;28;20100;-72
2021/01/25 02:03:04;;;;;;;8.03;4.73;;;2.00;93.00;;;;;;5026624;28;20062;-72
2021/01/25 02:05:30;;;;;;;10.00;5.20;;;2.10;93.00;;;;;;5041939;28;20806;-72
2021/01/25 02:07:58;;;;;;;11.10;5.70;;;2.10;93.00;;;;;;5019541;28;20068;-72
2021/01/25 02:10:26;;;;;;;8.77;5.13;;;2.10;93.00;;;;;;5039069;28;20069;-72
2021/01/25 02:12:57;;;;;;;10.30;5.37;;;2.10;93.00;;;;;;5028873;28;20041;-71
2021/01/25 02:15:25;;;;;;;10.93;6.07;;;2.10;93.00;;;;;;5014751;28;20115;-72
2021/01/25 02:17:53;;;;;;;8.80;5.13;;;2.10;93.00;;;;;;5028294;28;20069;-71
2021/01/25 02:20:30;;;;;;;10.83;6.03;;;2.10;93.00;;;;;;5004582;28;20405;-71
2021/01/25 02:23:08;;;;;;;9.47;4.97;;;2.10;92.90;;;;;;5033224;28;20037;-72
2021/01/25 02:25:50;;;;;;;10.37;5.57;;;2.10;92.90;;;;;;5020383;28;20378;-71
2021/01/25 02:28:16;;;;;;;10.63;5.77;;;2.10;92.90;;;;;;5020916;28;20084;-72
2021/01/25 02:30:44;;;;;;;10.83;5.87;;;2.10;92.90;;;;;;5033104;28;20655;-72
2021/01/25 02:33:12;;;;;;;9.40;6.07;;;2.10;92.90;;;;;;5047269;28;20102;-71
2021/01/25 02:35:39;;;;;;;9.13;5.37;;;2.10;93.00;;;;;;5035597;28;20045;-72
2021/01/25 02:38:09;;;;;;;10.10;5.97;;;2.00;93.00;;;;;;5042387;28;20057;-72
2021/01/25 02:40:37;;;;;;;8.90;5.13;;;2.10;93.00;;;;;;5047998;28;20068;-72
2021/01/25 02:43:04;;;;;;;14.60;7.37;;;2.10;93.00;;;;;;5041472;28;20045;-72
2021/01/25 02:45:31;;;;;;;13.63;6.70;;;2.10;92.90;;;;;;5046137;28;20063;-72
2021/01/25 02:47:58;;;;;;;10.90;6.40;;;2.10;92.90;;;;;;5034636;28;20037;-71
2021/01/25 02:50:25;;;;;;;10.70;6.23;;;2.10;92.90;;;;;;5046977;28;20413;-72
2021/01/25 02:52:52;;;;;;;10.23;5.93;;;2.00;92.90;;;;;;5035986;28;20072;-72
2021/01/25 02:55:18;;;;;;;10.00;6.10;;;2.00;92.90;;;;;;5019946;28;20515;-71
2021/01/25 02:57:46;;;;;;;12.73;7.17;;;2.00;92.90;;;;;;5043088;28;20452;-71
2021/01/25 03:00:13;;;;;;;10.63;5.87;;;2.00;92.90;;;;;;5044192;28;20115;-72
2021/01/25 03:02:40;;;;;;;9.93;5.97;;;2.00;92.90;;;;;;5036419;28;20523;-72
2021/01/25 03:05:07;;;;;;;10.67;5.60;;;2.00;92.90;;;;;;5045492;28;20044;-71
2021/01/25 03:07:34;;;;;;;9.40;5.60;;;2.00;92.90;;;;;;5029660;28;20049;-72
2021/01/25 03:10:05;;;;;;;8.87;5.07;;;2.00;92.90;;;;;;5037901;28;20095;-71
2021/01/25 03:12:33;;;;;;;9.97;5.13;;;2.00;93.00;;;;;;5031822;28;20053;-72
2021/01/25 03:14:59;;;;;;;11.03;5.83;;;2.00;93.20;;;;;;5042630;28;20044;-71
2021/01/25 03:17:26;;;;;;;7.57;4.90;;;1.90;92.90;;;;;;5044223;28;20056;-71
2021/01/25 03:19:53;;;;;;;10.83;6.23;;;1.90;92.90;;;;;;4999443;28;20553;-72
2021/01/25 03:22:19;;;;;;;9.40;5.67;;;1.90;92.90;;;;;;5040612;28;20069;-72
2021/01/25 03:24:46;;;;;;;9.23;5.63;;;1.90;92.90;;;;;;5037657;28;20502;-72
2021/01/25 03:27:12;;;;;;;10.43;6.10;;;1.90;93.00;;;;;;5038655;28;20686;-72
2021/01/25 03:29:39;;;;;;;10.77;5.57;;;1.90;93.00;;;;;;5040696;28;20045;-72
2021/01/25 03:32:05;;;;;;;8.80;5.43;;;1.90;93.00;;;;;;5030739;28;20049;-72
2021/01/25 03:34:32;;;;;;;9.90;5.43;;;1.90;93.00;;;;;;5043716;28;20059;-72
2021/01/25 03:36:59;;;;;;;11.27;5.83;;;1.80;93.00;;;;;;5025717;28;20042;-72
2021/01/25 03:39:25;;;;;;;11.20;5.67;;;1.80;93.00;;;;;;5000917;28;20054;-71
2021/01/25 03:41:52;;;;;;;10.30;6.50;;;1.80;93.00;;;;;;5045293;28;20044;-72
2021/01/25 03:44:18;;;;;;;12.77;7.43;;;1.80;93.00;;;;;;5003757;28;20056;-71
2021/01/25 03:46:46;;;;;;;11.57;7.43;;;1.80;93.00;;;;;;5031305;28;20047;-71
2021/01/25 03:49:16;;;;;;;13.43;8.47;;;1.70;93.00;;;;;;5016970;28;20044;-71
2021/01/25 03:51:43;;;;;;;13.97;8.07;;;1.70;93.00;;;;;;5021842;28;20443;-72
2021/01/25 03:54:13;;;;;;;12.87;7.53;;;1.60;93.00;;;;;;5032422;28;20041;-72
2021/01/25 03:56:40;;;;;;;13.77;7.83;;;1.60;93.00;;;;;;5029026;28;20048;-72
2021/01/25 03:59:07;;;;;;;10.63;6.77;;;1.70;93.10;;;;;;5049167;28;20434;-72
2021/01/25 04:01:33;;;;;;;12.23;6.53;;;1.60;93.10;;;;;;5042712;28;20063;-72
2021/01/25 04:04:00;;;;;;;12.93;6.80;;;1.60;93.10;;;;;;5049302;28;20092;-72
2021/01/25 04:06:27;;;;;;;11.93;6.60;;;1.60;93.10;;;;;;5043324;28;20488;-71
2021/01/25 04:08:53;;;;;;;9.53;6.00;;;1.60;93.10;;;;;;5017775;28;20037;-72
2021/01/25 04:11:20;;;;;;;9.60;5.30;;;1.70;93.10;;;;;;5044885;28;20447;-72
2021/01/25 04:13:46;;;;;;;8.47;4.93;;;1.70;93.10;;;;;;5031130;28;20128;-72
2021/01/25 04:16:13;;;;;;;9.23;5.30;;;1.70;93.10;;;;;;5042111;28;20148;-72
2021/01/25 04:18:39;;;;;;;9.20;4.93;;;1.70;93.10;;;;;;5031160;28;20378;-72
2021/01/25 04:21:06;;;;;;;9.27;4.10;;;1.60;93.10;;;;;;5045844;28;20102;-72
2021/01/25 04:23:32;;;;;;;8.03;3.90;;;1.60;93.10;;;;;;5044177;28;20123;-71
2021/01/25 04:25:59;;;;;;;6.10;3.40;;;1.60;93.10;;;;;;5046221;28;20499;-72
2021/01/25 04:28:25;;;;;;;6.07;3.27;;;1.50;93.10;;;;;;5039796;28;20553;-71
2021/01/25 04:30:52;;;;;;;8.10;4.20;;;1.50;93.20;;;;;;5031399;28;20125;-72
2021/01/25 04:33:21;;;;;;;7.23;4.27;;;1.40;93.20;;;;;;5044542;28;20045;-71
2021/01/25 04:35:48;;;;;;;7.20;3.70;;;1.40;93.20;;;;;;5044415;28;20470;-71
2021/01/25 04:38:14;;;;;;;5.47;3.27;;;1.40;93.20;;;;;;5010448;28;20052;-71
2021/01/25 04:40:41;;;;;;;7.27;3.87;;;1.40;93.20;;;;;;5042901;28;20386;-72
2021/01/25 04:43:10;;;;;;;6.13;3.30;;;1.30;93.30;;;;;;5010220;28;20098;-71
2021/01/25 04:45:37;;;;;;;6.57;3.43;;;1.30;93.30;;;;;;5044398;28;20119;-72
2021/01/25 04:48:05;;;;;;;6.33;3.70;;;1.30;93.30;;;;;;5035559;28;20041;-72
2021/01/25 04:50:32;;;;;;;7.73;3.83;;;1.20;93.30;;;;;;5039463;28;20531;-71
2021/01/25 04:52:59;;;;;;;6.60;3.60;;;1.20;93.30;;;;;;5024304;28;20042;-71
2021/01/25 04:55:27;;;;;;;5.50;2.97;;;1.20;93.30;;;;;;5044041;28;20041;-71
2021/01/25 04:57:54;;;;;;;6.70;3.43;;;1.10;93.30;;;;;;5022542;28;20037;-72
2021/01/25 05:00:21;;;;;;;8.17;3.50;;;1.10;93.30;;;;;;5029478;28;20488;-71
2021/01/25 05:02:47;;;;;;;8.47;3.93;;;1.10;93.40;;;;;;5005688;28;20061;-71
2021/01/25 05:05:14;;;;;;;6.10;3.00;;;1.00;93.40;;;;;;5050008;28;20441;-72
2021/01/25 05:07:41;;;;;;;6.73;3.77;;;1.00;93.40;;;;;;5039359;28;20045;-71
2021/01/25 05:10:08;;;;;;;7.10;3.20;;;1.00;93.40;;;;;;5017644;28;20043;-71
2021/01/25 05:12:47;;;;;;;7.70;3.20;;;1.00;93.40;;;;;;5046602;28;20052;-71
2021/01/25 05:15:34;;;;;;;6.80;3.70;;;1.00;93.40;;;;;;5041151;28;20053;-72
2021/01/25 05:18:06;;;;;;;9.00;4.50;;;0.90;93.40;;;;;;5037764;28;20840;-72
2021/01/25 05:20:34;;;;;;;8.65;4.82;;;0.90;93.40;;;;;;5015247;28;20707;-72
2021/01/25 05:23:12;;;;;;;7.90;4.87;;;0.90;93.40;;;;;;5039135;28;20150;-71
2021/01/25 05:25:38;;;;;;;8.10;4.23;;;0.90;93.40;;;;;;5022287;28;20057;-72
2021/01/25 05:28:19;;;;;;;7.27;4.60;;;0.90;93.40;;;;;;5036669;28;20061;-72
2021/01/25 05:30:46;;;;;;;7.67;3.90;;;0.80;93.40;;;;;;5034537;28;20037;-72
2021/01/25 05:33:13;;;;;;;7.27;3.90;;;0.80;93.70;;;;;;4984526;28;20046;-72
2021/01/25 05:35:42;;;;;;;8.53;4.10;;;0.80;93.40;;;;;;5016477;28;20045;-72
2021/01/25 05:38:09;;;;;;;7.23;3.63;;;0.80;93.50;;;;;;5004253;28;20056;-72
2021/01/25 05:40:38;;;;;;;6.43;3.20;;;0.80;93.50;;;;;;5051853;28;20579;-72
2021/01/25 05:43:16;;;;;;;7.43;4.00;;;0.70;93.50;;;;;;5028621;28;20033;-72
2021/01/25 05:45:43;;;;;;;7.63;3.77;;;0.70;93.50;;;;;;5051576;28;20041;-72
2021/01/25 05:48:14;;;;;;;6.50;4.00;;;0.70;93.50;;;;;;5005716;28;20044;-71
2021/01/25 05:50:43;;;;;;;6.90;3.20;;;0.70;93.50;;;;;;5029014;28;20042;-71
2021/01/25 05:53:13;;;;;;;10.83;5.57;;;0.70;93.60;;;;;;5009751;28;20497;-72
2021/01/25 05:55:41;;;;;;;14.43;6.20;;;0.80;93.60;;;;;;5035807;28;20417;-71
2021/01/25 05:58:08;;;;;;;10.60;6.17;;;0.80;93.60;;;;;;5030167;28;20041;-74
2021/01/25 06:00:35;;;;;;;10.77;6.23;;;0.90;93.50;;;;;;5047483;28;20049;-75
2021/01/25 06:03:03;;;;;;;10.90;6.23;;;0.90;93.40;;;;;;5029932;28;20038;-75
2021/01/25 06:05:41;;;;;;;9.67;5.77;;;0.90;93.40;;;;;;5036089;28;20498;-75
2021/01/25 06:08:50;;;;;;;8.93;4.90;;;1.00;93.40;;;;;;5041977;28;20516;-74
2021/01/25 06:11:29;;;;;;;10.03;6.43;;;0.90;93.40;;;;;;5042253;28;20045;-75
2021/01/25 06:14:00;;;;;;;11.20;5.80;;;0.90;93.40;;;;;;5047665;28;20776;-75
2021/01/25 06:16:29;;;;;;;12.33;6.77;;;0.90;93.50;;;;;;5034170;28;20792;-75
2021/01/25 06:19:01;;;;;;;11.77;6.77;;;0.90;93.50;;;;;;5032335;28;20099;-74
2021/01/25 06:21:33;;;;;;;10.85;6.50;;;0.90;93.40;;;;;;5026868;28;20463;-75
2021/01/25 06:24:02;;;;;;;11.60;5.87;;;0.90;93.40;;;;;;5036108;28;20124;-75
2021/01/25 06:26:33;;;;;;;13.37;6.03;;;0.80;93.40;;;;;;5048908;28;20035;-75
2021/01/25 06:29:07;;;;;;;8.97;5.17;;;0.80;93.50;;;;;;5047760;28;20048;-75
2021/01/25 06:31:38;;;;;;;10.50;6.03;;;0.80;93.50;;;;;;5029369;28;20060;-75
2021/01/25 06:34:09;;;;;;;10.77;5.63;;;0.80;93.50;;;;;;5045731;28;20124;-75
2021/01/25 06:36:38;;;;;;;10.87;5.63;;;0.80;93.50;;;;;;5043541;28;20509;-75
2021/01/25 06:39:06;;;;;;;9.37;5.07;;;0.80;93.50;;;;;;5040697;28;20053;-75
2021/01/25 06:41:42;;;;;;;9.93;5.03;;;0.80;93.50;;;;;;5046212;28;20457;-75
2021/01/25 06:44:11;;;;;;;10.27;5.47;;;0.80;93.50;;;;;;5045266;28;20091;-75
2021/01/25 06:46:39;;;;;;;10.80;5.67;;;0.80;93.50;;;;;;5029609;28;20069;-74
2021/01/25 06:49:08;;;;;;;8.77;5.07;;;0.80;93.50;;;;;;5037821;28;20049;-73
2021/01/25 06:51:44;;;;;;;9.53;5.40;;;0.70;93.50;;;;;;5039769;28;20136;-73
2021/01/25 06:54:13;;;;;;;8.53;5.40;;;0.70;93.50;;;;;;5033239;28;20056;-73
2021/01/25 06:56:55;;;;;;;9.90;5.07;;;0.70;93.50;;;;;;5050623;28;20044;-72
2021/01/25 06:59:30;;;;;;;10.10;4.83;;;0.70;93.50;;;;;;5039431;28;20402;-72
2021/01/25 07:01:58;;;;;;;8.97;4.20;;;0.60;93.60;;;;;;5012591;28;20040;-72
2021/01/25 07:04:29;;;;;;;9.73;4.23;;;0.60;93.60;;;;;;5031594;28;20132;-71
2021/01/25 07:06:56;;;;;;;7.13;3.93;;;0.60;93.60;;;;;;5042310;28;20040;-72
2021/01/25 07:09:29;;;;;;;8.53;4.70;;;0.50;93.60;;;;;;5024588;28;20125;-72
2021/01/25 07:12:01;;;;;;;7.93;4.50;;;0.50;93.60;;;;;;5030942;28;20049;-72
2021/01/25 07:14:30;;;;;;;9.52;5.35;;;0.60;93.70;;;;;;5044217;28;20053;-72
2021/01/25 07:16:59;;;;;;;11.30;6.17;;;0.60;93.70;;;;;;5034780;28;20125;-72
2021/01/25 07:19:27;;;;;;;9.40;6.13;;;0.60;93.70;;;;;;5022661;28;20056;-71
2021/01/25 07:21:55;;;;;;;9.93;6.43;;;0.60;93.60;;;;;;5028832;28;20504;-72
2021/01/25 07:24:27;;;;;;;11.47;6.50;;;0.70;93.60;;;;;;4999114;28;20561;-72
2021/01/25 07:26:58;;;;;;;13.20;6.73;;;0.70;93.50;;;;;;5045583;28;20069;-72
2021/01/25 07:29:26;;;;;;;11.23;6.40;;;0.70;93.50;;;;;;5049995;28;20493;-72
2021/01/25 07:31:54;;;;;;;11.23;6.63;;;0.70;93.50;;;;;;5042827;28;20037;-72
2021/01/25 07:34:23;;;;;;;12.43;5.90;;;0.70;93.40;;;;;;5041485;28;20100;-72
2021/01/25 07:36:50;;;;;;;11.57;6.53;;;0.70;93.50;;;;;;5022901;28;20407;-72
2021/01/25 07:39:18;;;;;;;11.67;5.40;;;0.70;93.50;;;;;;5046272;28;20056;-72
2021/01/25 07:41:46;;;;;;;9.43;5.07;;;0.70;93.50;;;;;;5029315;28;20045;-72
2021/01/25 07:44:13;;;;;;;12.80;6.83;;;0.70;93.50;;;;;;5040058;28;20479;-73
2021/01/25 07:46:43;;;;;;;11.67;6.47;;;0.60;93.50;;;;;;5052633;28;20041;-72
2021/01/25 07:49:12;;;;;;;10.20;6.10;;;0.60;93.50;;;;;;5046463;28;20517;-72
2021/01/25 07:51:39;;;;;;;9.90;5.83;;;0.60;93.50;;;;;;5047817;28;20036;-72
2021/01/25 07:54:13;;;;;;;9.60;5.23;;;0.50;93.50;;;;;;5049062;28;20045;-72
2021/01/25 07:56:40;;;;;;;11.83;5.97;;;0.60;93.80;;;;;;5041613;28;20049;-72
2021/01/25 07:59:08;;;;;;;9.77;5.47;;;0.50;93.60;;;;;;5055095;28;20052;-72
2021/01/25 08:01:53;;;;;;;11.48;6.03;;;0.50;93.60;;;;;;5053580;28;20048;-72
2021/01/25 08:04:27;;;;;;;12.57;6.53;;;0.50;93.60;;;;;;5053578;28;20135;-72
2021/01/25 08:06:57;;;;;;;10.60;5.60;;;0.40;93.60;;;;;;5040065;28;20037;-72
2021/01/25 08:09:28;;;;;;;9.80;5.60;;;0.40;93.60;;;;;;5047229;28;20033;-75
2021/01/25 08:11:56;;;;;;;9.97;6.37;;;0.40;93.60;;;;;;5046685;28;20030;-75
2021/01/25 08:14:44;;;;;;;10.63;4.93;;;0.30;93.70;;;;;;5010943;28;20493;-76
2021/01/25 08:17:30;;;;;;;9.40;5.53;;;0.30;93.70;;;;;;5050359;28;20409;-76
2021/01/25 08:19:59;;;;;;;9.20;5.27;;;0.30;93.70;;;;;;5043777;28;20460;-77
2021/01/25 08:22:49;;;;;;;9.97;5.70;;;0.30;93.70;;;;;;5053479;28;20531;-75
2021/01/25 08:25:19;;;;;;;8.13;4.43;;;0.30;93.70;;;;;;5043714;28;20034;-76
2021/01/25 08:28:05;;;;;;;10.43;5.27;;;0.30;93.80;;;;;;5053650;28;20045;-72
2021/01/25 08:30:44;;;;;;;9.27;5.30;;;0.30;93.80;;;;;;5021806;28;20064;-74
2021/01/25 08:33:15;;;;;;;9.30;5.73;;;0.30;93.80;;;;;;5052946;28;20040;-74
2021/01/25 08:35:49;;;;;;;;;;;0.40;93.80;;;;;;5041594;28;20124;-75
2021/01/25 08:38:26;;;;;;;7.43;4.37;;;0.30;93.80;;;;;;5049124;28;19928;-74
2021/01/25 08:40:56;;;;;;;8.23;4.93;;;0.40;93.80;;;;;;5022464;28;20046;-74
2021/01/25 08:43:27;;;;;;;7.63;4.17;;;0.40;93.80;;;;;;5052142;28;20091;-74
2021/01/25 08:46:06;;;;;;;8.00;4.03;;;0.40;93.80;;;;;;5040750;28;20069;-75
2021/01/25 08:48:33;;;;;;;9.20;4.33;;;0.40;93.80;;;;;;5026549;28;20049;-74
2021/01/25 08:51:30;;;;;;;7.57;3.50;;;0.40;93.80;;;;;;5052101;28;20051;-75
2021/01/25 08:54:01;;;;;;;8.67;4.00;;;0.50;93.80;;;;;;5047660;28;20057;-76
2021/01/25 08:56:35;;;;;;;6.67;3.53;;;0.50;93.80;;;;;;5028822;28;20111;-76
2021/01/25 08:59:10;;;;;;;6.63;3.60;;;0.50;93.80;;;;;;5017666;28;20041;-76
2021/01/25 09:01:38;;;;;;;6.17;3.37;;;0.50;93.80;;;;;;5027573;28;20513;-75
2021/01/25 09:04:06;;;;;;;5.97;3.23;;;0.50;93.80;;;;;;5040148;28;20481;-75
2021/01/25 09:06:38;;;;;;;8.73;3.80;;;0.50;93.80;;;;;;5051473;28;20063;-75
2021/01/25 09:09:06;;;;;;;6.87;3.47;;;0.60;93.80;;;;;;5034294;28;20029;-75
2021/01/25 09:11:38;;;;;;;6.30;3.40;;;0.60;93.80;;;;;;5031726;28;20092;-75
2021/01/25 09:14:04;;;;;;;6.63;3.27;;;0.60;93.80;;;;;;5003799;28;20049;-75
2021/01/25 09:16:31;;;;;;;5.70;2.70;;;0.60;93.80;;;;;;5046091;28;20144;-75
2021/01/25 09:18:57;;;;;;;6.00;3.33;;;0.70;93.80;;;;;;5047080;28;20061;-75
2021/01/25 09:21:24;;;;;;;6.83;3.23;;;0.70;93.80;;;;;;5040009;28;20186;-74
2021/01/25 09:23:50;;;;;;;6.93;3.50;;;0.80;93.70;;;;;;5029262;28;20033;-75
2021/01/25 09:26:20;;;;;;;6.17;3.33;;;0.80;93.70;;;;;;5027758;28;20041;-74
2021/01/25 09:28:47;;;;;;;5.40;2.90;;;0.80;93.70;;;;;;5030924;28;20046;-75
2021/01/25 09:31:16;;;;;;;5.63;2.80;;;0.90;93.70;;;;;;5053688;28;20037;-75
2021/01/25 09:33:42;;;;;;;7.00;2.70;;;0.90;93.70;;;;;;5054269;28;20063;-75
2021/01/25 09:36:09;;;;;;;5.53;2.73;;;0.90;93.70;;;;;;5030966;28;20393;-75
2021/01/25 09:38:35;;;;;;;5.63;2.80;;;1.00;93.70;;;;;;4992432;28;20058;-75
2021/01/25 09:41:02;;;;;;;6.57;2.70;;;1.00;93.60;;;;;;5012716;28;20123;-76
2021/01/25 09:43:28;;;;;;;6.77;2.80;;;1.00;93.60;;;;;;5013863;28;20133;-75
2021/01/25 09:45:55;;;;;;;5.33;2.53;;;1.10;93.60;;;;;;5035989;28;20783;-75
2021/01/25 09:48:21;;;;;;;7.90;3.77;;;1.10;93.60;;;;;;5052475;28;20064;-75
2021/01/25 09:50:48;;;;;;;9.67;4.47;;;1.20;93.60;;;;;;5029974;28;20057;-75
2021/01/25 09:53:15;;;;;;;7.63;4.47;;;1.30;93.50;;;;;;5011087;28;20502;-76
2021/01/25 09:55:42;;;;;;;10.37;5.80;;;1.40;93.50;;;;;;5029231;28;20045;-75
2021/01/25 09:58:08;;;;;;;10.03;5.40;;;1.50;93.40;;;;;;5019430;28;20045;-74
2021/01/25 10:00:38;;;;;;;9.77;5.57;;;1.50;93.60;;;;;;5041443;28;20081;-75
2021/01/25 10:03:05;;;;;;;10.77;5.80;;;1.60;93.30;;;;;;5047586;28;20128;-74
2021/01/25 10:05:32;;;;;;;13.57;6.43;;;1.60;93.30;;;;;;5022935;28;20132;-74
2021/01/25 10:07:58;;;;;;;12.20;5.87;;;1.60;93.30;;;;;;5027185;28;20400;-74
2021/01/25 10:10:25;;;;;;;9.87;5.07;;;1.60;93.20;;;;;;4987594;28;20160;-74
2021/01/25 10:12:51;;;;;;;12.03;5.83;;;1.60;93.20;;;;;;5050926;28;20057;-73
2021/01/25 10:15:18;;;;;;;10.00;5.63;;;1.60;93.20;;;;;;5040432;28;20041;-73
2021/01/25 10:17:45;;;;;;;8.80;4.13;;;1.70;93.20;;;;;;5033993;28;20036;-74
2021/01/25 10:20:14;;;;;;;10.17;5.20;;;1.70;93.20;;;;;;5045763;28;20041;-72
2021/01/25 10:22:42;;;;;;;11.13;5.33;;;1.70;93.30;;;;;;5029961;28;20875;-72
2021/01/25 10:25:10;;;;;;;9.30;5.27;;;1.70;93.20;;;;;;5034064;28;20044;-72
2021/01/25 10:27:40;;;;;;;11.30;6.17;;;1.70;93.20;;;;;;5026098;28;20094;-74
2021/01/25 10:30:10;;;;;;;8.40;4.63;;;1.80;93.20;;;;;;5035130;28;20061;-74
2021/01/25 10:32:36;;;;;;;8.93;4.50;;;1.80;93.20;;;;;;5027683;28;20061;-72
2021/01/25 10:35:04;;;;;;;9.00;4.77;;;1.80;93.20;;;;;;5030363;28;20570;-73
2021/01/25 10:37:30;;;;;;;10.63;5.70;;;1.80;93.20;;;;;;5027592;28;20060;-74
2021/01/25 10:39:57;;;;;;;13.10;7.47;;;1.90;93.20;;;;;;5025249;28;20069;-73
2021/01/25 10:42:24;;;;;;;12.57;6.63;;;1.90;93.10;;;;;;5050842;28;20103;-74
2021/01/25 10:44:50;;;;;;;11.97;6.87;;;2.00;93.10;;;;;;5015552;28;20137;-74
2021/01/25 10:47:20;;;;;;;13.27;7.00;;;2.00;93.10;;;;;;5001668;28;20089;-72
2021/01/25 10:49:57;;;;;;;10.10;6.03;;;2.10;93.00;;;;;;5028413;28;20045;-74
2021/01/25 10:52:27;;;;;;;10.20;5.17;;;2.10;93.00;;;;;;5040425;28;20065;-73
2021/01/25 10:54:54;;;;;;;12.03;6.40;;;2.20;93.00;;;;;;5031997;28;20164;-72
2021/01/25 10:57:20;;;;;;;10.47;5.13;;;2.20;92.90;;;;;;5003062;28;20049;-72
2021/01/25 10:59:47;;;;;;;10.90;5.43;;;2.30;92.80;;;;;;5021711;28;20050;-73
2021/01/25 11:02:14;;;;;;;11.07;5.93;;;2.30;92.80;;;;;;5040351;28;20404;-73
2021/01/25 11:04:40;;;;;;;13.47;7.00;;;2.30;92.80;;;;;;5045791;28;20042;-74
2021/01/25 11:07:07;;;;;;;13.33;7.97;;;2.40;92.80;;;;;;5010972;28;20102;-75
2021/01/25 11:09:33;;;;;;;12.40;6.80;;;2.50;92.60;;;;;;5048978;28;20045;-74
2021/01/25 11:12:01;;;;;;;9.10;5.30;;;2.50;92.60;;;;;;5022275;28;20147;-74
2021/01/25 11:14:27;;;;;;;13.40;6.83;;;2.50;92.60;;;;;;5044754;28;20045;-74
2021/01/25 11:16:54;;;;;;;11.53;6.17;;;2.50;92.60;;;;;;5027716;28;20049;-73
2021/01/25 11:19:21;;;;;;;13.10;6.80;;;2.60;92.70;;;;;;5033987;28;20116;-73
2021/01/25 11:21:47;;;;;;;16.30;9.47;;;2.60;92.50;;;;;;5042936;28;20054;-73
2021/01/25 11:24:13;;;;;;;14.23;8.63;;;2.80;92.40;;;;;;5031302;28;20055;-73
2021/01/25 11:26:42;;;;;;;13.77;7.93;;;2.80;92.30;;;;;;5024722;28;20037;-73
2021/01/25 11:29:10;;;;;;;15.53;8.20;;;2.80;92.30;;;;;;5019682;28;20061;-73
2021/01/25 11:31:40;;;;;;;16.00;8.30;;;2.90;92.30;;;;;;5032711;28;20045;-75
2021/01/25 11:34:07;;;;;;;14.80;8.83;;;2.90;92.20;;;;;;5045247;28;20156;-76
2021/01/25 11:36:34;;;;;;;18.33;9.93;;;2.90;92.10;;;;;;5009978;28;20104;-72
2021/01/25 11:39:00;;;;;;;14.77;8.20;;;2.90;92.10;;;;;;5013081;28;20065;-72
2021/01/25 11:41:27;;;;;;;16.83;8.70;;;3.00;92.10;;;;;;5021424;28;20085;-72
2021/01/25 11:43:53;;;;;;;13.93;8.20;;;3.00;91.90;;;;;;5004904;28;20057;-73
2021/01/25 11:46:20;;;;;;;12.77;7.43;;;3.10;91.90;;;;;;4987783;28;20041;-73
2021/01/25 11:48:46;;;;;;;16.03;9.00;;;3.10;91.90;;;;;;5027388;28;20042;-74
2021/01/25 11:51:16;;;;;;;12.60;7.23;;;3.20;91.80;;;;;;5025070;28;20038;-74
2021/01/25 11:53:42;;;;;;;14.87;8.30;;;3.20;91.80;;;;;;5006082;28;20099;-73
2021/01/25 11:56:09;;;;;;;14.70;7.83;;;3.20;91.80;;;;;;5016371;28;20034;-72
2021/01/25 11:58:36;;;;;;;20.13;11.50;;;3.30;91.80;;;;;;5012349;28;20088;-73
2021/01/25 12:01:03;;;;;;;15.33;9.77;;;3.30;91.50;;;;;;5029828;28;20057;-73
2021/01/25 12:03:31;;;;;;;14.10;8.57;;;3.40;91.50;;;;;;5031634;28;20500;-72
2021/01/25 12:05:58;;;;;;;14.60;8.10;;;3.40;91.50;;;;;;5031011;28;20072;-73
2021/01/25 12:08:25;;;;;;;13.10;7.63;;;3.40;91.50;;;;;;5038940;28;20390;-72
2021/01/25 12:10:51;;;;;;;15.93;9.23;;;3.40;91.60;;;;;;5004753;28;20046;-72
2021/01/25 12:13:18;;;;;;;15.87;9.30;;;3.40;91.60;;;;;;5033843;28;20149;-72
2021/01/25 12:15:45;;;;;;;16.47;9.60;;;3.50;91.50;;;;;;4996710;28;20033;-72
2021/01/25 12:18:11;;;;;;;18.90;11.40;;;3.50;91.40;;;;;;5031356;28;20098;-72
2021/01/25 12:20:38;;;;;;;16.07;9.27;;;3.50;91.40;;;;;;5015383;28;20149;-72
2021/01/25 12:23:04;;;;;;;14.70;9.03;;;3.60;91.50;;;;;;5034298;28;20115;-72
2021/01/25 12:25:32;;;;;;;14.73;9.00;;;3.60;91.60;;;;;;5029217;28;20044;-72
2021/01/25 12:27:58;;;;;;;12.20;7.97;;;3.60;91.60;;;;;;5016442;28;20057;-72
2021/01/25 12:30:25;;;;;;;11.37;7.00;;;3.60;91.70;;;;;;5043468;28;20049;-71
2021/01/25 12:32:51;;;;;;;12.10;6.27;;;3.70;91.70;;;;;;5053032;28;20098;-72
2021/01/25 12:35:19;;;;;;;8.57;5.07;;;3.70;91.60;;;;;;5053079;28;20037;-72
2021/01/25 12:37:46;;;;;;;10.07;5.97;;;3.70;91.60;;;;;;5038752;28;20049;-73
2021/01/25 12:40:14;;;;;;;8.23;4.73;;;3.80;91.80;;;;;;5008104;28;20099;-72
2021/01/25 12:42:41;;;;;;;6.73;3.67;;;3.70;91.60;;;;;;5022538;28;20050;-72
2021/01/25 12:45:08;;;;;;;7.90;4.33;;;3.80;91.60;;;;;;5033792;28;20072;-73
2021/01/25 12:47:35;;;;;;;7.97;3.87;;;3.80;91.50;;;;;;5023748;28;20045;-72
2021/01/25 12:50:04;;;;;;;7.67;3.33;;;3.80;91.50;;;;;;5047543;28;20121;-72
2021/01/25 12:52:31;;;;;;;6.50;3.10;;;3.80;91.50;;;;;;5032527;28;20049;-72
2021/01/25 12:54:58;;;;;;;6.53;3.80;;;3.80;91.50;;;;;;5030814;28;20045;-72
2021/01/25 12:57:24;;;;;;;7.77;4.73;;;3.90;91.40;;;;;;5033469;28;20049;-73
2021/01/25 12:59:50;;;;;;;8.13;5.53;;;3.90;91.20;;;;;;5032275;28;20048;-72